createdAt,value
2017-03-25T00:00:02.065Z,9.27
2017-03-25T00:01:16.679Z,9.26
2017-03-25T00:02:30.886Z,9.24
2017-03-25T00:03:45.918Z,9.22
2017-03-25T00:05:00.325Z,9.21
2017-03-25T00:06:15.024Z,9.18
2017-03-25T00:07:29.578Z,9.16
2017-03-25T00:08:44.157Z,9.17
2017-03-25T00:09:58.322Z,9.17
2017-03-25T00:11:12.993Z,9.19
2017-03-25T00:12:27.101Z,9.2
2017-03-25T00:13:42.159Z,9.21
2017-03-25T00:14:56.608Z,9.21
2017-03-25T00:16:10.895Z,9.2
2017-03-25T00:17:26.122Z,9.21
2017-03-25T00:18:40.798Z,9.2
2017-03-25T00:19:55.697Z,9.24
2017-03-25T00:21:10.396Z,9.26
2017-03-25T00:22:24.926Z,9.28
2017-03-25T00:23:39.357Z,9.28
2017-03-25T00:24:54.268Z,9.27
2017-03-25T00:26:08.502Z,9.25
2017-03-25T00:27:23.312Z,9.24
2017-03-25T00:28:38.056Z,9.24
2017-03-25T00:29:52.738Z,9.26
2017-03-25T00:31:07.660Z,9.23
2017-03-25T00:32:21.789Z,9.19
2017-03-25T00:33:36.432Z,9.18
2017-03-25T00:34:50.663Z,9.16
2017-03-25T00:36:08.044Z,9.14
2017-03-25T00:37:23.059Z,9.11
2017-03-25T00:38:37.548Z,9.09
2017-03-25T00:39:52.098Z,9.07
2017-03-25T00:41:06.682Z,9.05
2017-03-25T00:42:21.190Z,9.04
2017-03-25T00:43:35.547Z,9.06
2017-03-25T00:44:50.675Z,9.07
2017-03-25T00:46:04.999Z,9.04
2017-03-25T00:47:19.759Z,9.03
2017-03-25T00:48:34.054Z,9.01
2017-03-25T00:49:48.946Z,8.97
2017-03-25T00:51:03.537Z,8.95
2017-03-25T00:52:18.777Z,8.92
2017-03-25T00:53:33.762Z,8.91
2017-03-25T00:54:48.816Z,8.85
2017-03-25T00:56:03.114Z,8.82
2017-03-25T00:57:17.927Z,8.78
2017-03-25T00:58:32.585Z,8.77
2017-03-25T00:59:47.107Z,8.78
2017-03-25T01:01:02.288Z,8.77
2017-03-25T01:02:17.539Z,8.79
2017-03-25T01:03:31.988Z,8.78
2017-03-25T01:04:47.211Z,8.76
2017-03-25T01:06:02.076Z,8.75
2017-03-25T01:07:16.177Z,8.76
2017-03-25T01:08:30.449Z,8.74
2017-03-25T01:09:44.889Z,8.73
2017-03-25T01:10:59.257Z,8.73
2017-03-25T01:12:13.402Z,8.71
2017-03-25T01:13:27.700Z,8.7
2017-03-25T01:14:42.476Z,8.68
2017-03-25T01:15:57.091Z,8.67
2017-03-25T01:17:11.073Z,8.67
2017-03-25T01:18:25.407Z,8.67
2017-03-25T01:19:39.859Z,8.66
2017-03-25T01:20:54.819Z,8.63
2017-03-25T01:22:09.658Z,8.6
2017-03-25T01:23:24.538Z,8.59
2017-03-25T01:24:38.648Z,8.58
2017-03-25T01:25:54.217Z,8.55
2017-03-25T01:27:08.531Z,8.53
2017-03-25T01:28:22.882Z,8.51
2017-03-25T01:29:37.736Z,8.48
2017-03-25T01:30:55.507Z,8.48
2017-03-25T01:32:15.402Z,8.48
2017-03-25T01:33:33.689Z,8.49
2017-03-25T01:34:49.364Z,8.51
2017-03-25T01:36:09.365Z,8.51
2017-03-25T01:37:28.548Z,8.5
2017-03-25T01:38:46.413Z,8.5
2017-03-25T01:40:05.042Z,8.48
2017-03-25T01:41:20.974Z,8.46
2017-03-25T01:42:37.363Z,8.46
2017-03-25T01:43:56.243Z,8.46
2017-03-25T01:45:12.713Z,8.45
2017-03-25T01:46:29.047Z,8.46
2017-03-25T01:47:43.589Z,8.47
2017-03-25T01:48:59.422Z,8.45
2017-03-25T01:50:13.520Z,8.44
2017-03-25T01:51:27.767Z,8.43
2017-03-25T01:52:42.295Z,8.45
2017-03-25T01:53:59.071Z,8.44
2017-03-25T01:55:13.525Z,8.44
2017-03-25T01:56:28.101Z,8.43
2017-03-25T01:57:42.428Z,8.41
2017-03-25T01:58:57.063Z,8.37
2017-03-25T02:00:11.299Z,8.34
2017-03-25T02:01:25.566Z,8.28
2017-03-25T02:02:39.664Z,8.24
2017-03-25T02:03:53.990Z,8.22
2017-03-25T02:05:08.134Z,8.2
2017-03-25T02:06:22.749Z,8.19
2017-03-25T02:07:36.863Z,8.16
2017-03-25T02:08:51.180Z,8.14
2017-03-25T02:10:05.579Z,8.13
2017-03-25T02:11:19.853Z,8.11
2017-03-25T02:12:34.330Z,8.1
2017-03-25T02:13:48.475Z,8.1
2017-03-25T02:15:09.356Z,8.06
2017-03-25T02:16:23.759Z,8.05
2017-03-25T02:17:38.120Z,8.04
2017-03-25T02:18:52.259Z,8.05
2017-03-25T02:20:06.720Z,8.04
2017-03-25T02:21:21.122Z,8.01
2017-03-25T02:22:35.218Z,8.01
2017-03-25T02:23:50.301Z,8
2017-03-25T02:25:04.351Z,7.99
2017-03-25T02:26:19.114Z,7.99
2017-03-25T02:27:34.002Z,8
2017-03-25T02:28:48.209Z,7.99
2017-03-25T02:30:02.318Z,7.98
2017-03-25T02:31:16.623Z,7.97
2017-03-25T02:32:30.754Z,8
2017-03-25T02:33:45.356Z,7.99
2017-03-25T02:35:00.447Z,7.99
2017-03-25T02:36:14.925Z,7.98
2017-03-25T02:37:29.127Z,7.98
2017-03-25T02:38:43.565Z,7.98
2017-03-25T02:39:58.732Z,7.96
2017-03-25T02:41:15.905Z,7.97
2017-03-25T02:42:32.965Z,7.98
2017-03-25T02:43:47.615Z,7.98
2017-03-25T02:45:02.096Z,7.96
2017-03-25T02:46:16.878Z,7.96
2017-03-25T02:47:31.501Z,7.92
2017-03-25T02:48:45.778Z,7.9
2017-03-25T02:50:00.952Z,7.88
2017-03-25T02:51:17.166Z,7.86
2017-03-25T02:52:31.782Z,7.85
2017-03-25T02:53:46.081Z,7.85
2017-03-25T02:55:00.095Z,7.82
2017-03-25T02:56:15.140Z,7.79
2017-03-25T02:57:29.215Z,7.78
2017-03-25T02:58:44.558Z,7.78
2017-03-25T02:59:58.663Z,7.8
2017-03-25T03:01:12.914Z,7.78
2017-03-25T03:02:27.260Z,7.75
2017-03-25T03:03:41.705Z,7.73
2017-03-25T03:04:56.250Z,7.72
2017-03-25T03:06:10.591Z,7.72
2017-03-25T03:07:25.143Z,7.7
2017-03-25T03:08:39.359Z,7.69
2017-03-25T03:09:53.505Z,7.67
2017-03-25T03:11:10.346Z,7.67
2017-03-25T03:12:24.795Z,7.66
2017-03-25T03:13:39.080Z,7.64
2017-03-25T03:14:53.158Z,7.64
2017-03-25T03:16:07.562Z,7.64
2017-03-25T03:17:22.465Z,7.64
2017-03-25T03:18:36.854Z,7.64
2017-03-25T03:19:51.036Z,7.65
2017-03-25T03:21:05.295Z,7.64
2017-03-25T03:22:19.373Z,7.64
2017-03-25T03:23:33.679Z,7.63
2017-03-25T03:24:51.769Z,7.62
2017-03-25T03:26:06.127Z,7.61
2017-03-25T03:27:21.506Z,7.6
2017-03-25T03:28:36.334Z,7.58
2017-03-25T03:29:50.387Z,7.58
2017-03-25T03:31:04.582Z,7.59
2017-03-25T03:32:18.611Z,7.58
2017-03-25T03:33:33.092Z,7.59
2017-03-25T03:34:47.588Z,7.56
2017-03-25T03:36:11.093Z,7.54
2017-03-25T03:37:25.036Z,7.54
2017-03-25T03:38:39.683Z,7.52
2017-03-25T03:39:54.281Z,7.52
2017-03-25T03:41:08.482Z,7.49
2017-03-25T03:42:22.481Z,7.47
2017-03-25T03:43:37.002Z,7.48
2017-03-25T03:44:51.815Z,7.49
2017-03-25T03:46:05.986Z,7.52
2017-03-25T03:47:20.015Z,7.52
2017-03-25T03:48:34.597Z,7.5
2017-03-25T03:49:49.111Z,7.5
2017-03-25T03:51:03.600Z,7.51
2017-03-25T03:52:18.127Z,7.53
2017-03-25T03:53:32.279Z,7.52
2017-03-25T03:54:46.368Z,7.51
2017-03-25T03:56:01.685Z,7.51
2017-03-25T03:57:16.524Z,7.52
2017-03-25T03:58:32.121Z,7.53
2017-03-25T03:59:46.884Z,7.52
2017-03-25T04:01:01.885Z,7.52
2017-03-25T04:02:16.245Z,7.49
2017-03-25T04:03:31.261Z,7.49
2017-03-25T04:04:46.310Z,7.47
2017-03-25T04:06:00.924Z,7.46
2017-03-25T04:07:15.218Z,7.45
2017-03-25T04:08:29.736Z,7.46
2017-03-25T04:09:43.759Z,7.45
2017-03-25T04:10:58.239Z,7.46
2017-03-25T04:12:12.726Z,7.47
2017-03-25T04:13:27.350Z,7.47
2017-03-25T04:14:41.393Z,7.47
2017-03-25T04:15:55.979Z,7.51
2017-03-25T04:17:10.067Z,7.51
2017-03-25T04:18:24.375Z,7.5
2017-03-25T04:19:38.351Z,7.5
2017-03-25T04:20:52.625Z,7.51
2017-03-25T04:22:07.175Z,7.5
2017-03-25T04:23:21.396Z,7.48
2017-03-25T04:24:35.856Z,7.46
2017-03-25T04:25:50.552Z,7.43
2017-03-25T04:27:05.314Z,7.43
2017-03-25T04:28:21.856Z,7.43
2017-03-25T04:29:36.038Z,7.44
2017-03-25T04:30:51.074Z,7.46
2017-03-25T04:32:05.046Z,7.48
2017-03-25T04:33:19.272Z,7.48
2017-03-25T04:34:33.440Z,7.47
2017-03-25T04:35:48.021Z,7.46
2017-03-25T04:37:02.181Z,7.43
2017-03-25T04:38:16.653Z,7.4
2017-03-25T04:39:32.869Z,7.39
2017-03-25T04:40:48.158Z,7.38
2017-03-25T04:42:02.965Z,7.38
2017-03-25T04:43:17.938Z,7.37
2017-03-25T04:44:32.708Z,7.36
2017-03-25T04:45:48.704Z,7.36
2017-03-25T04:47:04.272Z,7.36
2017-03-25T04:48:20.050Z,7.36
2017-03-25T04:49:34.519Z,7.36
2017-03-25T04:50:49.297Z,7.36
2017-03-25T04:52:03.343Z,7.35
2017-03-25T04:53:17.586Z,7.33
2017-03-25T04:54:31.684Z,7.33
2017-03-25T04:55:46.074Z,7.3
2017-03-25T04:57:00.594Z,7.27
2017-03-25T04:58:14.896Z,7.27
2017-03-25T04:59:29.038Z,7.26
2017-03-25T05:00:43.272Z,7.27
2017-03-25T05:01:57.649Z,7.27
2017-03-25T05:03:11.945Z,7.26
2017-03-25T05:04:26.396Z,7.23
2017-03-25T05:05:40.662Z,7.19
2017-03-25T05:06:54.905Z,7.19
2017-03-25T05:08:10.106Z,7.18
2017-03-25T05:09:24.244Z,7.18
2017-03-25T05:10:38.839Z,7.19
2017-03-25T05:11:54.162Z,7.2
2017-03-25T05:13:08.818Z,7.22
2017-03-25T05:14:22.897Z,7.22
2017-03-25T05:15:37.067Z,7.22
2017-03-25T05:16:51.595Z,7.23
2017-03-25T05:18:05.808Z,7.24
2017-03-25T05:19:19.901Z,7.25
2017-03-25T05:20:34.556Z,7.25
2017-03-25T05:21:49.101Z,7.25
2017-03-25T05:23:03.265Z,7.25
2017-03-25T05:24:17.396Z,7.27
2017-03-25T05:25:32.414Z,7.27
2017-03-25T05:26:46.979Z,7.3
2017-03-25T05:28:01.533Z,7.33
2017-03-25T05:29:15.705Z,7.37
2017-03-25T05:30:30.323Z,7.37
2017-03-25T05:31:44.468Z,7.37
2017-03-25T05:32:59.193Z,7.4
2017-03-25T05:34:13.783Z,7.43
2017-03-25T05:35:28.225Z,7.44
2017-03-25T05:36:42.993Z,7.45
2017-03-25T05:37:57.279Z,7.48
2017-03-25T05:39:11.725Z,7.49
2017-03-25T05:40:26.474Z,7.5
2017-03-25T05:41:41.290Z,7.48
2017-03-25T05:42:55.954Z,7.49
2017-03-25T05:44:10.781Z,7.47
2017-03-25T05:45:27.968Z,7.47
2017-03-25T05:46:42.083Z,7.48
2017-03-25T05:47:57.096Z,7.48
2017-03-25T05:49:12.220Z,7.49
2017-03-25T05:50:26.730Z,7.52
2017-03-25T05:51:41.246Z,7.54
2017-03-25T05:52:56.448Z,7.56
2017-03-25T05:54:10.610Z,7.57
2017-03-25T05:55:25.344Z,7.58
2017-03-25T05:56:40.105Z,7.61
2017-03-25T05:57:54.432Z,7.64
2017-03-25T05:59:09.562Z,7.64
2017-03-25T06:00:23.721Z,7.63
2017-03-25T06:01:38.381Z,7.65
2017-03-25T06:02:52.707Z,7.65
2017-03-25T06:04:07.255Z,7.67
2017-03-25T06:05:22.334Z,7.67
2017-03-25T06:06:36.941Z,7.69
2017-03-25T06:07:51.660Z,7.72
2017-03-25T06:09:06.029Z,7.72
2017-03-25T06:10:20.742Z,7.75
2017-03-25T06:11:35.224Z,7.76
2017-03-25T06:12:49.912Z,7.75
2017-03-25T06:14:04.313Z,7.73
2017-03-25T06:15:19.431Z,7.7
2017-03-25T06:16:33.595Z,7.69
2017-03-25T06:18:04.830Z,7.71
2017-03-25T06:19:19.687Z,7.76
2017-03-25T06:20:34.327Z,7.79
2017-03-25T06:21:48.973Z,7.8
2017-03-25T06:23:03.636Z,7.8
2017-03-25T06:24:19.029Z,7.83
2017-03-25T06:25:33.063Z,7.85
2017-03-25T06:26:47.542Z,7.89
2017-03-25T06:28:02.193Z,7.91
2017-03-25T06:29:16.902Z,7.92
2017-03-25T06:30:31.480Z,7.92
2017-03-25T06:31:45.871Z,7.93
2017-03-25T06:33:01.834Z,7.95
2017-03-25T06:34:16.900Z,7.97
2017-03-25T06:35:31.761Z,8
2017-03-25T06:36:46.671Z,8.01
2017-03-25T06:38:00.772Z,8.03
2017-03-25T06:39:16.033Z,8.05
2017-03-25T06:40:30.194Z,8.08
2017-03-25T06:41:44.779Z,8.15
2017-03-25T06:43:00.839Z,8.22
2017-03-25T06:44:15.822Z,8.27
2017-03-25T06:45:31.913Z,8.31
2017-03-25T06:46:48.491Z,8.33
2017-03-25T06:48:05.122Z,8.39
2017-03-25T06:49:19.704Z,8.43
2017-03-25T06:50:36.743Z,8.47
2017-03-25T06:51:52.775Z,8.51
2017-03-25T06:53:07.215Z,8.54
2017-03-25T06:54:21.722Z,8.57
2017-03-25T06:55:36.091Z,8.6
2017-03-25T06:56:51.277Z,8.63
2017-03-25T06:58:06.546Z,8.64
2017-03-25T06:59:21.328Z,8.66
2017-03-25T07:00:35.508Z,8.67
2017-03-25T07:01:50.454Z,8.68
2017-03-25T07:03:07.127Z,8.73
2017-03-25T07:04:22.071Z,8.77
2017-03-25T07:05:36.425Z,8.77
2017-03-25T07:06:50.615Z,8.78
2017-03-25T07:08:04.592Z,8.84
2017-03-25T07:09:19.628Z,8.89
2017-03-25T07:10:34.637Z,8.92
2017-03-25T07:11:48.848Z,8.95
2017-03-25T07:13:02.921Z,8.97
2017-03-25T07:14:18.143Z,8.96
2017-03-25T07:15:32.600Z,8.97
2017-03-25T07:16:47.241Z,8.97
2017-03-25T07:18:01.680Z,9
2017-03-25T07:19:16.605Z,9.02
2017-03-25T07:20:31.027Z,9.04
2017-03-25T07:21:45.382Z,9.08
2017-03-25T07:22:59.630Z,9.1
2017-03-25T07:24:14.262Z,9.1
2017-03-25T07:25:28.275Z,9.1
2017-03-25T07:26:43.647Z,9.1
2017-03-25T07:27:57.798Z,9.08
2017-03-25T07:29:12.284Z,9.08
2017-03-25T07:30:27.820Z,9.1
2017-03-25T07:31:43.132Z,9.1
2017-03-25T07:32:57.506Z,9.13
2017-03-25T07:34:11.800Z,9.17
2017-03-25T07:35:26.890Z,9.19
2017-03-25T07:36:41.136Z,9.2
2017-03-25T07:37:56.146Z,9.19
2017-03-25T07:39:11.491Z,9.23
2017-03-25T07:40:26.304Z,9.27
2017-03-25T07:41:40.634Z,9.32
2017-03-25T07:42:55.072Z,9.38
2017-03-25T07:44:09.644Z,9.43
2017-03-25T07:45:23.984Z,9.47
2017-03-25T07:46:38.538Z,9.51
2017-03-25T07:47:53.052Z,9.58
2017-03-25T07:49:07.912Z,9.6
2017-03-25T07:50:22.836Z,9.65
2017-03-25T07:51:37.840Z,9.75
2017-03-25T07:52:52.017Z,9.85
2017-03-25T07:54:06.636Z,9.94
2017-03-25T07:55:20.986Z,9.98
2017-03-25T07:56:35.560Z,10.03
2017-03-25T07:57:50.281Z,10.14
2017-03-25T07:59:04.572Z,10.2
2017-03-25T08:00:18.799Z,10.21
2017-03-25T08:01:33.086Z,10.23
2017-03-25T08:02:48.359Z,10.27
2017-03-25T08:04:04.487Z,10.31
2017-03-25T08:05:19.006Z,10.32
2017-03-25T08:06:33.430Z,10.34
2017-03-25T08:07:48.260Z,10.37
2017-03-25T08:09:02.807Z,10.41
2017-03-25T08:10:18.044Z,10.44
2017-03-25T08:11:33.075Z,10.5
2017-03-25T08:12:47.827Z,10.56
2017-03-25T08:14:02.037Z,10.61
2017-03-25T08:15:16.092Z,10.64
2017-03-25T08:16:31.049Z,10.65
2017-03-25T08:17:45.496Z,10.65
2017-03-25T08:19:02.167Z,10.65
2017-03-25T08:20:17.747Z,10.67
2017-03-25T08:21:31.488Z,10.69
2017-03-25T08:22:44.888Z,10.7
2017-03-25T08:23:59.611Z,10.74
2017-03-25T08:25:12.961Z,10.8
2017-03-25T08:26:27.009Z,10.89
2017-03-25T08:27:41.050Z,10.94
2017-03-25T08:28:54.916Z,10.98
2017-03-25T08:30:08.467Z,11.01
2017-03-25T08:31:22.175Z,11.04
2017-03-25T08:32:35.936Z,11.05
2017-03-25T08:33:49.646Z,11.05
2017-03-25T08:35:03.008Z,11.1
2017-03-25T08:36:16.568Z,11.12
2017-03-25T08:37:30.197Z,11.12
2017-03-25T08:38:43.946Z,11.08
2017-03-25T08:39:57.601Z,11.1
2017-03-25T08:41:11.197Z,11.11
2017-03-25T08:42:24.873Z,11.1
2017-03-25T08:43:39.550Z,11.12
2017-03-25T08:44:53.347Z,11.13
2017-03-25T08:46:06.837Z,11.17
2017-03-25T08:47:20.858Z,11.19
2017-03-25T08:48:35.035Z,11.19
2017-03-25T08:49:49.080Z,11.22
2017-03-25T08:51:04.196Z,11.23
2017-03-25T08:52:18.038Z,11.23
2017-03-25T08:53:32.070Z,11.24
2017-03-25T08:54:47.597Z,11.22
2017-03-25T08:56:02.773Z,11.21
2017-03-25T08:57:17.357Z,11.19
2017-03-25T08:58:31.274Z,11.22
2017-03-25T08:59:45.097Z,11.26
2017-03-25T09:01:00.103Z,11.33
2017-03-25T09:02:14.388Z,11.42
2017-03-25T09:03:28.385Z,11.48
2017-03-25T09:04:42.289Z,11.56
2017-03-25T09:06:08.836Z,11.65
2017-03-25T09:07:22.777Z,11.78
2017-03-25T09:08:36.365Z,11.87
2017-03-25T09:09:50.021Z,11.95
2017-03-25T09:11:03.501Z,12
2017-03-25T09:12:17.255Z,12
2017-03-25T09:13:31.619Z,12.01
2017-03-25T09:14:45.563Z,12.01
2017-03-25T09:15:59.453Z,11.96
2017-03-25T09:17:12.895Z,11.95
2017-03-25T09:18:26.708Z,11.94
2017-03-25T09:19:40.139Z,11.92
2017-03-25T09:20:53.814Z,11.88
2017-03-25T09:22:07.230Z,11.87
2017-03-25T09:23:21.354Z,11.88
2017-03-25T09:24:34.979Z,11.89
2017-03-25T09:25:48.468Z,11.93
2017-03-25T09:27:02.155Z,11.99
2017-03-25T09:28:15.656Z,12.08
2017-03-25T09:29:29.552Z,12.16
2017-03-25T09:30:43.055Z,12.21
2017-03-25T09:31:56.788Z,12.25
2017-03-25T09:33:10.302Z,12.29
2017-03-25T09:34:23.712Z,12.36
2017-03-25T09:35:38.360Z,12.38
2017-03-25T09:36:54.730Z,12.41
2017-03-25T09:38:08.187Z,12.45
2017-03-25T09:39:21.987Z,12.46
2017-03-25T09:40:35.828Z,12.47
2017-03-25T09:41:49.255Z,12.45
2017-03-25T09:43:03.282Z,12.49
2017-03-25T09:44:16.957Z,12.55
2017-03-25T09:46:01.487Z,12.63
2017-03-25T09:47:15.355Z,12.71
2017-03-25T09:48:28.743Z,12.78
2017-03-25T09:49:42.755Z,12.88
2017-03-25T09:50:56.401Z,12.97
2017-03-25T09:52:10.675Z,13.04
2017-03-25T09:53:24.844Z,13.11
2017-03-25T09:54:38.813Z,13.15
2017-03-25T09:55:53.698Z,13.13
2017-03-25T09:57:07.899Z,13.12
2017-03-25T09:58:21.716Z,13.11
2017-03-25T09:59:36.534Z,13.09
2017-03-25T10:00:50.184Z,13.13
2017-03-25T10:02:04.631Z,13.2
2017-03-25T10:03:18.231Z,13.24
2017-03-25T10:04:32.333Z,13.32
2017-03-25T10:05:46.239Z,13.37
2017-03-25T10:07:00.619Z,13.43
2017-03-25T10:08:15.680Z,13.44
2017-03-25T10:09:29.865Z,13.48
2017-03-25T10:10:43.557Z,13.52
2017-03-25T10:11:58.927Z,13.57
2017-03-25T10:13:12.486Z,13.64
2017-03-25T10:14:45.814Z,13.65
2017-03-25T10:16:00.536Z,13.69
2017-03-25T10:17:15.400Z,13.72
2017-03-25T10:18:30.325Z,13.78
2017-03-25T10:19:43.864Z,13.85
2017-03-25T10:20:57.451Z,13.92
2017-03-25T10:22:11.884Z,13.92
2017-03-25T10:23:26.004Z,13.95
2017-03-25T10:24:39.443Z,14.02
2017-03-25T10:25:53.118Z,14.13
2017-03-25T10:27:07.440Z,14.22
2017-03-25T10:28:21.737Z,14.3
2017-03-25T10:29:37.802Z,14.33
2017-03-25T10:30:51.421Z,14.34
2017-03-25T10:32:04.950Z,14.3
2017-03-25T10:33:18.743Z,14.26
2017-03-25T10:34:32.613Z,14.25
2017-03-25T10:35:46.525Z,14.27
2017-03-25T10:37:00.055Z,14.32
2017-03-25T10:38:13.628Z,14.36
2017-03-25T10:39:27.104Z,14.41
2017-03-25T10:40:41.304Z,14.46
2017-03-25T10:41:55.031Z,14.52
2017-03-25T10:43:09.003Z,14.58
2017-03-25T10:44:25.745Z,14.69
2017-03-25T10:45:52.875Z,14.71
2017-03-25T10:47:07.358Z,14.72
2017-03-25T10:48:21.040Z,14.68
2017-03-25T10:49:34.908Z,14.67
2017-03-25T10:50:48.809Z,14.69
2017-03-25T10:52:03.027Z,14.68
2017-03-25T10:53:17.849Z,14.67
2017-03-25T10:54:34.208Z,14.66
2017-03-25T10:55:48.893Z,14.66
2017-03-25T10:57:02.408Z,14.72
2017-03-25T10:58:16.686Z,14.75
2017-03-25T10:59:31.203Z,14.78
2017-03-25T11:00:45.427Z,14.82
2017-03-25T11:01:59.232Z,14.85
2017-03-25T11:03:12.844Z,14.86
2017-03-25T11:04:26.349Z,14.91
2017-03-25T11:05:40.171Z,14.9
2017-03-25T11:06:53.592Z,14.91
2017-03-25T11:08:07.193Z,14.92
2017-03-25T11:09:20.638Z,14.95
2017-03-25T11:10:34.145Z,14.97
2017-03-25T11:11:48.708Z,15.02
2017-03-25T11:13:02.500Z,15.07
2017-03-25T11:14:16.014Z,15.12
2017-03-25T11:15:29.554Z,15.15
2017-03-25T11:16:42.980Z,15.17
2017-03-25T11:17:57.133Z,15.17
2017-03-25T11:19:10.618Z,15.18
2017-03-25T11:20:24.084Z,15.21
2017-03-25T11:21:38.133Z,15.25
2017-03-25T11:22:51.772Z,15.29
2017-03-25T11:24:20.438Z,15.3
2017-03-25T11:25:34.234Z,15.32
2017-03-25T11:26:47.887Z,15.36
2017-03-25T11:28:01.621Z,15.4
2017-03-25T11:29:15.003Z,15.46
2017-03-25T11:30:29.040Z,15.5
2017-03-25T11:31:43.330Z,15.54
2017-03-25T11:32:56.751Z,15.59
2017-03-25T11:34:10.086Z,15.69
2017-03-25T11:35:23.636Z,15.78
2017-03-25T11:36:37.230Z,15.87
2017-03-25T11:38:03.837Z,15.87
2017-03-25T11:39:17.211Z,15.92
2017-03-25T11:40:30.663Z,15.95
2017-03-25T11:41:44.502Z,15.98
2017-03-25T11:42:57.939Z,15.99
2017-03-25T11:44:11.925Z,16
2017-03-25T11:45:25.707Z,15.98
2017-03-25T11:46:39.057Z,16
2017-03-25T11:47:52.483Z,15.99
2017-03-25T11:49:05.830Z,16.05
2017-03-25T11:50:19.372Z,16.04
2017-03-25T11:51:33.081Z,16.04
2017-03-25T11:52:47.245Z,16.09
2017-03-25T11:54:00.925Z,16.08
2017-03-25T11:55:14.549Z,16.07
2017-03-25T11:56:28.627Z,16.08
2017-03-25T11:57:42.361Z,16.1
2017-03-25T11:58:56.109Z,16.18
2017-03-25T12:00:09.702Z,16.26
2017-03-25T12:01:23.232Z,16.34
2017-03-25T12:02:36.860Z,16.37
2017-03-25T12:03:51.414Z,16.41
2017-03-25T12:05:04.919Z,16.48
2017-03-25T12:06:18.790Z,16.54
2017-03-25T12:07:33.144Z,16.57
2017-03-25T12:08:46.796Z,16.63
2017-03-25T12:10:00.604Z,16.68
2017-03-25T12:11:16.454Z,16.73
2017-03-25T12:12:30.388Z,16.7
2017-03-25T12:13:45.088Z,16.7
2017-03-25T12:14:59.758Z,16.72
2017-03-25T12:16:14.139Z,16.69
2017-03-25T12:17:28.073Z,16.65
2017-03-25T12:18:42.331Z,16.62
2017-03-25T12:19:56.584Z,16.56
2017-03-25T12:21:10.418Z,16.54
2017-03-25T12:22:24.610Z,16.56
2017-03-25T12:23:38.094Z,16.57
2017-03-25T12:24:51.749Z,16.6
2017-03-25T12:26:05.397Z,16.6
2017-03-25T12:27:19.620Z,16.58
2017-03-25T12:28:33.885Z,16.59
2017-03-25T12:29:48.206Z,16.6
2017-03-25T12:31:01.939Z,16.61
2017-03-25T12:32:15.802Z,16.6
2017-03-25T12:33:29.299Z,16.61
2017-03-25T12:34:43.468Z,16.65
2017-03-25T12:35:56.853Z,16.72
2017-03-25T12:37:10.647Z,16.78
2017-03-25T12:38:25.307Z,16.83
2017-03-25T12:39:38.852Z,16.82
2017-03-25T12:40:53.448Z,16.82
2017-03-25T12:42:07.219Z,16.82
2017-03-25T12:43:20.804Z,16.83
2017-03-25T12:44:34.373Z,16.84
2017-03-25T12:45:48.101Z,16.85
2017-03-25T12:47:02.281Z,16.83
2017-03-25T12:48:16.275Z,16.84
2017-03-25T12:49:29.838Z,16.84
2017-03-25T12:50:43.569Z,16.84
2017-03-25T12:51:57.385Z,16.83
2017-03-25T12:53:11.450Z,16.79
2017-03-25T12:54:25.431Z,16.79
2017-03-25T12:55:39.342Z,16.8
2017-03-25T12:56:52.889Z,16.83
2017-03-25T12:58:06.601Z,16.89
2017-03-25T12:59:35.821Z,16.98
2017-03-25T13:00:49.620Z,17.07
2017-03-25T13:02:03.112Z,17.1
2017-03-25T13:03:16.812Z,17.1
2017-03-25T13:04:39.399Z,17.11
2017-03-25T13:05:52.743Z,17.12
2017-03-25T13:07:06.205Z,17.1
2017-03-25T13:08:19.613Z,17.13
2017-03-25T13:09:33.047Z,17.14
2017-03-25T13:10:46.694Z,17.14
2017-03-25T13:12:00.534Z,17.18
2017-03-25T13:13:13.885Z,17.14
2017-03-25T13:14:27.698Z,17.15
2017-03-25T13:15:41.109Z,17.16
2017-03-25T13:16:55.114Z,17.16
2017-03-25T13:18:08.510Z,17.15
2017-03-25T13:19:22.021Z,17.14
2017-03-25T13:20:35.805Z,17.13
2017-03-25T13:21:50.097Z,17.14
2017-03-25T13:23:03.551Z,17.16
2017-03-25T13:24:17.411Z,17.22
2017-03-25T13:25:30.773Z,17.25
2017-03-25T13:26:44.233Z,17.24
2017-03-25T13:27:59.796Z,17.24
2017-03-25T13:29:13.260Z,17.26
2017-03-25T13:30:26.675Z,17.27
2017-03-25T13:31:40.479Z,17.22
2017-03-25T13:32:54.164Z,17.19
2017-03-25T13:34:07.788Z,17.18
2017-03-25T13:35:21.697Z,17.19
2017-03-25T13:36:35.589Z,17.17
2017-03-25T13:37:50.264Z,17.17
2017-03-25T13:39:04.387Z,17.19
2017-03-25T13:40:18.407Z,17.22
2017-03-25T13:41:32.130Z,17.23
2017-03-25T13:42:45.539Z,17.22
2017-03-25T13:43:59.556Z,17.2
2017-03-25T13:45:13.011Z,17.18
2017-03-25T13:46:26.521Z,17.19
2017-03-25T13:47:40.119Z,17.18
2017-03-25T13:48:54.294Z,17.2
2017-03-25T13:50:07.971Z,17.22
2017-03-25T13:51:34.502Z,17.26
2017-03-25T13:52:48.111Z,17.28
2017-03-25T13:54:02.114Z,17.31
2017-03-25T13:55:15.534Z,17.32
2017-03-25T13:56:29.074Z,17.3
2017-03-25T13:57:42.532Z,17.31
2017-03-25T13:58:56.794Z,17.31
2017-03-25T14:00:10.506Z,17.28
2017-03-25T14:01:24.641Z,17.26
2017-03-25T14:02:37.982Z,17.27
2017-03-25T14:03:52.129Z,17.3
2017-03-25T14:05:05.767Z,17.29
2017-03-25T14:06:19.578Z,17.29
2017-03-25T14:07:32.924Z,17.26
2017-03-25T14:08:47.498Z,17.25
2017-03-25T14:10:00.843Z,17.28
2017-03-25T14:11:14.693Z,17.31
2017-03-25T14:12:28.785Z,17.32
2017-03-25T14:13:42.289Z,17.37
2017-03-25T14:14:56.039Z,17.4
2017-03-25T14:16:09.924Z,17.41
2017-03-25T14:17:23.416Z,17.39
2017-03-25T14:18:37.042Z,17.38
2017-03-25T14:19:51.199Z,17.37
2017-03-25T14:21:18.445Z,17.38
2017-03-25T14:22:31.959Z,17.38
2017-03-25T14:23:45.563Z,17.38
2017-03-25T14:24:59.105Z,17.36
2017-03-25T14:26:12.892Z,17.35
2017-03-25T14:27:26.452Z,17.35
2017-03-25T14:28:49.622Z,17.35
2017-03-25T14:30:02.986Z,17.34
2017-03-25T14:31:16.423Z,17.34
2017-03-25T14:32:29.805Z,17.36
2017-03-25T14:33:43.220Z,17.37
2017-03-25T14:34:56.534Z,17.36
2017-03-25T14:36:10.432Z,17.33
2017-03-25T14:37:23.890Z,17.33
2017-03-25T14:38:37.377Z,17.34
2017-03-25T14:39:50.734Z,17.34
2017-03-25T14:41:05.036Z,17.33
2017-03-25T14:42:19.704Z,17.36
2017-03-25T14:43:33.256Z,17.4
2017-03-25T14:44:49.087Z,17.44
2017-03-25T14:46:02.890Z,17.49
2017-03-25T14:47:16.684Z,17.51
2017-03-25T14:48:30.872Z,17.54
2017-03-25T14:49:44.346Z,17.52
2017-03-25T14:50:57.949Z,17.53
2017-03-25T14:52:11.595Z,17.54
2017-03-25T14:53:25.158Z,17.53
2017-03-25T14:54:39.034Z,17.53
2017-03-25T14:55:52.893Z,17.52
2017-03-25T14:57:06.619Z,17.5
2017-03-25T14:58:20.178Z,17.51
2017-03-25T14:59:33.583Z,17.52
2017-03-25T15:00:47.702Z,17.52
2017-03-25T15:02:01.335Z,17.51
2017-03-25T15:03:15.197Z,17.49
2017-03-25T15:04:28.764Z,17.48
2017-03-25T15:05:42.589Z,17.52
2017-03-25T15:06:56.298Z,17.57
2017-03-25T15:08:10.156Z,17.59
2017-03-25T15:09:23.568Z,17.67
2017-03-25T15:10:37.401Z,17.71
2017-03-25T15:11:51.153Z,17.76
2017-03-25T15:13:05.456Z,17.75
2017-03-25T15:14:19.243Z,17.74
2017-03-25T15:15:32.807Z,17.74
2017-03-25T15:16:46.428Z,17.72
2017-03-25T15:18:00.233Z,17.74
2017-03-25T15:19:14.259Z,17.74
2017-03-25T15:20:28.525Z,17.72
2017-03-25T15:21:41.954Z,17.73
2017-03-25T15:22:55.485Z,17.71
2017-03-25T15:24:09.910Z,17.68
2017-03-25T15:25:24.630Z,17.71
2017-03-25T15:26:38.417Z,17.73
2017-03-25T15:27:52.012Z,17.72
2017-03-25T15:29:06.180Z,17.73
2017-03-25T15:30:20.272Z,17.76
2017-03-25T15:31:34.084Z,17.78
2017-03-25T15:32:48.225Z,17.79
2017-03-25T15:34:02.814Z,17.76
2017-03-25T15:35:17.384Z,17.76
2017-03-25T15:36:30.854Z,17.76
2017-03-25T15:37:44.846Z,17.74
2017-03-25T15:38:58.509Z,17.72
2017-03-25T15:40:13.116Z,17.69
2017-03-25T15:41:26.950Z,17.67
2017-03-25T15:42:40.868Z,17.67
2017-03-25T15:43:54.954Z,17.67
2017-03-25T15:45:09.203Z,17.68
2017-03-25T15:46:22.860Z,17.68
2017-03-25T15:47:37.296Z,17.68
2017-03-25T15:48:51.046Z,17.68
2017-03-25T15:50:06.137Z,17.68
2017-03-25T15:51:19.946Z,17.67
2017-03-25T15:52:34.274Z,17.65
2017-03-25T15:53:48.393Z,17.64
2017-03-25T15:55:17.764Z,17.65
2017-03-25T15:56:32.822Z,17.69
2017-03-25T15:57:46.432Z,17.72
2017-03-25T15:59:00.348Z,17.73
2017-03-25T16:00:15.047Z,17.72
2017-03-25T16:01:31.653Z,17.71
2017-03-25T16:02:46.378Z,17.7
2017-03-25T16:04:00.270Z,17.69
2017-03-25T16:05:14.155Z,17.69
2017-03-25T16:06:28.317Z,17.69
2017-03-25T16:07:42.601Z,17.65
2017-03-25T16:08:56.884Z,17.63
2017-03-25T16:10:10.731Z,17.59
2017-03-25T16:11:24.173Z,17.57
2017-03-25T16:12:37.740Z,17.56
2017-03-25T16:13:51.315Z,17.57
2017-03-25T16:15:05.540Z,17.58
2017-03-25T16:16:19.081Z,17.59
2017-03-25T16:17:32.845Z,17.57
2017-03-25T16:18:47.000Z,17.55
2017-03-25T16:20:23.631Z,17.52